createdAt,value
2018-12-15T00:00:10.982Z,98594.48
2018-12-15T00:02:42.576Z,98595.44
2018-12-15T00:05:14.338Z,98594.66
2018-12-15T00:07:45.803Z,98597.56
2018-12-15T00:10:17.416Z,98596.22
2018-12-15T00:12:48.921Z,98591.11
2018-12-15T00:15:20.560Z,98584.75
2018-12-15T00:17:52.023Z,98595.59
2018-12-15T00:20:23.566Z,98597.89
2018-12-15T00:22:55.023Z,98605.08
2018-12-15T00:25:26.571Z,98604.05
2018-12-15T00:27:58.036Z,98606.10
2018-12-15T00:30:29.578Z,98602.23
2018-12-15T00:33:01.047Z,98604.68
2018-12-15T00:35:32.652Z,98608.44
2018-12-15T00:38:04.152Z,98606.95
2018-12-15T00:40:35.701Z,98607.95
2018-12-15T00:43:07.147Z,98604.43
2018-12-15T00:45:38.703Z,98604.92
2018-12-15T00:48:10.155Z,98608.23
2018-12-15T00:50:41.700Z,98615.09
2018-12-15T00:53:13.169Z,98617.06
2018-12-15T00:55:44.695Z,98618.86
2018-12-15T00:58:16.172Z,98617.15
2018-12-15T01:00:47.818Z,98624.47
2018-12-15T01:03:19.245Z,98622.64
2018-12-15T01:05:51.040Z,98621.94
2018-12-15T01:08:22.451Z,98623.22
2018-12-15T01:10:54.027Z,98621.26
2018-12-15T01:13:25.639Z,98621.63
2018-12-15T01:15:57.153Z,98624.50
2018-12-15T01:18:28.767Z,98621.53
2018-12-15T01:21:00.256Z,98628.33
2018-12-15T01:23:31.865Z,98627.67
2018-12-15T01:26:03.370Z,98628.45
2018-12-15T01:28:34.907Z,98630.75
2018-12-15T01:31:06.381Z,98625.92
2018-12-15T01:33:38.010Z,98621.80
2018-12-15T01:36:09.433Z,98624.66
2018-12-15T01:38:41.013Z,98625.25
2018-12-15T01:41:12.440Z,98626.55
2018-12-15T01:43:44.016Z,98628.73
2018-12-15T01:46:15.443Z,98630.33
2018-12-15T01:48:47.047Z,98632.28
2018-12-15T01:51:18.854Z,98639.73
2018-12-15T01:53:50.363Z,98641.14
2018-12-15T01:56:21.947Z,98648.98
2018-12-15T01:58:53.445Z,98649.94
2018-12-15T02:01:25.063Z,98651.38
2018-12-15T02:03:56.586Z,98655.70
2018-12-15T02:06:28.175Z,98657.28
2018-12-15T02:08:59.694Z,98656.19
2018-12-15T02:11:31.195Z,98662.64
2018-12-15T02:14:02.694Z,98665.55
2018-12-15T02:16:34.461Z,98661.84
2018-12-15T02:19:05.904Z,98657.98
2018-12-15T02:21:37.632Z,98657.83
2018-12-15T02:24:09.101Z,98653.47
2018-12-15T02:26:40.745Z,98652.27
2018-12-15T02:29:14.228Z,98654.28
2018-12-15T02:31:45.796Z,98653.05
2018-12-15T02:34:17.360Z,98654.25
2018-12-15T02:36:48.820Z,98656.23
2018-12-15T02:39:20.427Z,98656.83
2018-12-15T02:41:51.895Z,98655.36
2018-12-15T02:44:23.478Z,98653.52
2018-12-15T02:46:54.936Z,98653.05
2018-12-15T02:49:26.572Z,98656.98
2018-12-15T02:51:57.997Z,98657.38
2018-12-15T02:54:29.579Z,98657.38
2018-12-15T02:57:00.995Z,98660.37
2018-12-15T02:59:32.580Z,98662.00
2018-12-15T03:02:04.444Z,98665.92
2018-12-15T03:04:35.926Z,98668.27
2018-12-15T03:07:07.512Z,98671.92
2018-12-15T03:09:39.019Z,98670.22
2018-12-15T03:12:10.565Z,98665.78
2018-12-15T03:14:42.023Z,98664.58
2018-12-15T03:17:13.666Z,98661.56
2018-12-15T03:19:45.142Z,98666.40
2018-12-15T03:22:16.691Z,98668.30
2018-12-15T03:24:48.297Z,98671.39
2018-12-15T03:27:19.983Z,98681.33
2018-12-15T03:29:51.559Z,98679.84
2018-12-15T03:32:23.108Z,98677.48
2018-12-15T03:34:54.553Z,98676.13
2018-12-15T03:37:26.096Z,98680.08
2018-12-15T03:39:57.591Z,98675.46
2018-12-15T03:42:29.111Z,98680.73
2018-12-15T03:45:00.567Z,98687.62
2018-12-15T03:47:32.117Z,98687.08
2018-12-15T03:50:03.968Z,98690.63
2018-12-15T03:52:35.428Z,98688.45
2018-12-15T03:55:07.187Z,98686.31
2018-12-15T03:57:38.650Z,98681.97
2018-12-15T04:00:10.501Z,98688.36
2018-12-15T04:02:42.007Z,98680.75
2018-12-15T04:05:13.541Z,98686.17
2018-12-15T04:07:45.006Z,98682.16
2018-12-15T04:10:16.644Z,98684.23
2018-12-15T04:12:48.086Z,98682.97
2018-12-15T04:15:19.657Z,98685.04
2018-12-15T04:17:51.133Z,98677.30
2018-12-15T04:20:22.720Z,98682.52
2018-12-15T04:22:54.133Z,98680.75
2018-12-15T04:25:25.725Z,98685.61
2018-12-15T04:27:57.277Z,98685.89
2018-12-15T04:30:28.838Z,98690.91
2018-12-15T04:33:00.302Z,98692.14
2018-12-15T04:35:32.247Z,98693.90
2018-12-15T04:38:03.866Z,98696.42
2018-12-15T04:40:35.730Z,98701.12
2018-12-15T04:43:07.325Z,98699.23
2018-12-15T04:45:38.834Z,98700.64
2018-12-15T04:48:11.329Z,98703.34
2018-12-15T04:50:43.016Z,98699.17
2018-12-15T04:53:14.561Z,98700.76
2018-12-15T04:55:45.919Z,98701.71
2018-12-15T04:58:17.537Z,98701.40
2018-12-15T05:00:49.036Z,98700.76
2018-12-15T05:03:20.637Z,98701.60
2018-12-15T05:05:52.143Z,98705.20
2018-12-15T05:08:23.631Z,98700.78
2018-12-15T05:10:55.233Z,98699.91
2018-12-15T05:13:26.783Z,98704.25
2018-12-15T05:15:58.332Z,98703.97
2018-12-15T05:18:29.796Z,98711.28
2018-12-15T05:21:01.348Z,98714.06
2018-12-15T05:23:32.798Z,98716.69
2018-12-15T05:26:04.371Z,98715.23
2018-12-15T05:28:35.809Z,98715.95
2018-12-15T05:31:07.416Z,98720.06
2018-12-15T05:33:38.929Z,98713.67
2018-12-15T05:36:10.528Z,98717.01
2018-12-15T05:38:42.031Z,98718.22
2018-12-15T05:41:13.577Z,98728.56
2018-12-15T05:43:45.141Z,98723.70
2018-12-15T05:46:16.679Z,98726.30
2018-12-15T05:48:48.709Z,98729.11
2018-12-15T05:51:20.219Z,98725.82
2018-12-15T05:53:51.821Z,98733.28
2018-12-15T05:56:23.316Z,98730.39
2018-12-15T05:58:54.853Z,98733.73
2018-12-15T06:01:26.337Z,98732.15
2018-12-15T06:03:57.929Z,98732.91
2018-12-15T06:06:29.441Z,98737.94
2018-12-15T06:09:01.031Z,98741.09
2018-12-15T06:11:32.533Z,98740.23
2018-12-15T06:14:04.228Z,98740.11
2018-12-15T06:16:35.806Z,98740.41
2018-12-15T06:19:07.404Z,98742.02
2018-12-15T06:21:38.809Z,98743.02
2018-12-15T06:24:10.312Z,98737.07
2018-12-15T06:26:41.757Z,98740.67
2018-12-15T06:29:13.258Z,98734.46
2018-12-15T06:31:44.917Z,98743.92
2018-12-15T06:34:16.412Z,98748.80
2018-12-15T06:36:48.016Z,98743.20
2018-12-15T06:39:19.519Z,98745.22
2018-12-15T06:41:51.136Z,98746.31
2018-12-15T06:44:22.647Z,98751.36
2018-12-15T06:46:54.170Z,98746.57
2018-12-15T06:49:26.398Z,98752.98
2018-12-15T06:51:57.901Z,98749.71
2018-12-15T06:54:29.450Z,98752.95
2018-12-15T06:57:00.909Z,98753.73
2018-12-15T06:59:32.455Z,98752.04
2018-12-15T07:02:03.955Z,98752.95
2018-12-15T07:04:35.460Z,98753.04
2018-12-15T07:07:06.919Z,98757.38
2018-12-15T07:09:38.499Z,98757.81
2018-12-15T07:12:10.290Z,98761.36
2018-12-15T07:14:41.896Z,98765.12
2018-12-15T07:17:13.508Z,98766.16
2018-12-15T07:19:45.008Z,98766.12
2018-12-15T07:22:16.609Z,98768.83
2018-12-15T07:24:51.501Z,98769.80
2018-12-15T07:27:54.820Z,98769.27
2018-12-15T07:30:44.886Z,98767.75
2018-12-15T07:33:17.156Z,98766.45
2018-12-15T07:35:48.709Z,98763.58
2018-12-15T07:38:20.153Z,98757.53
2018-12-15T07:40:51.764Z,98762.34
2018-12-15T07:43:23.256Z,98762.73
2018-12-15T07:45:54.801Z,98763.90
2018-12-15T07:48:26.258Z,98760.86
2018-12-15T07:50:59.106Z,98762.53
2018-12-15T07:53:30.599Z,98759.66
2018-12-15T07:56:02.206Z,98757.30
2018-12-15T07:58:33.702Z,98760.66
2018-12-15T08:01:05.316Z,98760.47
2018-12-15T08:03:36.906Z,98754.38
2018-12-15T08:06:08.457Z,98764.42
2018-12-15T08:08:39.914Z,98764.04
2018-12-15T08:11:16.491Z,98765.84
2018-12-15T08:13:49.284Z,98765.86
2018-12-15T08:16:20.817Z,98769.98
2018-12-15T08:18:57.916Z,98770.00
2018-12-15T08:21:25.778Z,98772.95
2018-12-15T08:23:59.707Z,98775.23
2018-12-15T08:26:31.304Z,98775.06
2018-12-15T08:29:02.824Z,98778.08
2018-12-15T08:31:34.409Z,98775.15
2018-12-15T08:34:05.846Z,98772.06
2018-12-15T08:36:37.439Z,98773.42
2018-12-15T08:39:09.818Z,98768.86
2018-12-15T08:41:41.286Z,98775.50
2018-12-15T08:44:12.932Z,98774.05
2018-12-15T08:46:44.407Z,98775.52
2018-12-15T08:49:15.993Z,98780.42
2018-12-15T08:51:47.500Z,98778.41
2018-12-15T08:54:19.107Z,98776.95
2018-12-15T08:56:50.606Z,98781.47
2018-12-15T08:59:22.213Z,98783.20
2018-12-15T09:01:53.719Z,98784.28
2018-12-15T09:04:25.315Z,98786.69
2018-12-15T09:06:56.814Z,98789.00
2018-12-15T09:09:28.463Z,98788.05
2018-12-15T09:11:59.896Z,98792.56
2018-12-15T09:14:31.484Z,98792.02
2018-12-15T09:17:02.939Z,98795.56
2018-12-15T09:19:34.472Z,98787.36
2018-12-15T09:22:11.362Z,98785.08
2018-12-15T09:24:39.538Z,98783.05
2018-12-15T09:27:11.199Z,98775.59
2018-12-15T09:29:42.822Z,98782.89
2018-12-15T09:32:14.386Z,98784.44
2018-12-15T09:34:46.130Z,98780.92
2018-12-15T09:37:17.627Z,98777.92
2018-12-15T09:39:49.229Z,98778.48
2018-12-15T09:42:20.717Z,98774.92
2018-12-15T09:44:52.276Z,98773.33
2018-12-15T09:47:23.727Z,98774.77
2018-12-15T09:49:55.488Z,98770.44
2018-12-15T09:52:26.940Z,98770.12
2018-12-15T09:54:58.475Z,98774.77
2018-12-15T09:57:29.790Z,98770.67
2018-12-15T10:00:01.438Z,98775.92
2018-12-15T10:02:32.958Z,98775.64
2018-12-15T10:05:04.799Z,98765.09
2018-12-15T10:07:36.264Z,98760.91
2018-12-15T10:10:07.834Z,98762.26
2018-12-15T10:12:39.271Z,98762.83
2018-12-15T10:15:10.833Z,98758.48
2018-12-15T10:17:42.279Z,98750.69
2018-12-15T10:20:13.691Z,98748.77
2018-12-15T10:22:45.267Z,98746.83
2018-12-15T10:25:16.692Z,98744.05
2018-12-15T10:27:48.295Z,98750.31
2018-12-15T10:30:24.509Z,98745.67
2018-12-15T10:32:56.632Z,98744.42
2018-12-15T10:35:28.188Z,98743.77
2018-12-15T10:37:59.590Z,98739.80
2018-12-15T10:40:31.155Z,98741.80
2018-12-15T10:43:02.734Z,98741.31
2018-12-15T10:45:34.182Z,98738.15
2018-12-15T10:48:05.788Z,98735.64
2018-12-15T10:50:37.298Z,98740.95
2018-12-15T10:53:08.823Z,98738.68
2018-12-15T10:55:40.299Z,98736.41
2018-12-15T10:58:11.891Z,98734.14
2018-12-15T11:00:48.372Z,98734.02
2018-12-15T11:03:19.961Z,98732.16
2018-12-15T11:05:51.393Z,98735.94
2018-12-15T11:08:22.963Z,98730.63
2018-12-15T11:10:54.439Z,98729.61
2018-12-15T11:13:25.998Z,98722.92
2018-12-15T11:15:57.438Z,98722.81
2018-12-15T11:18:28.973Z,98722.20
2018-12-15T11:21:00.532Z,98719.91
2018-12-15T11:23:32.108Z,98719.17
2018-12-15T11:26:03.710Z,98721.97
2018-12-15T11:28:35.212Z,98725.17
2018-12-15T11:31:06.916Z,98721.91
2018-12-15T11:33:38.415Z,98721.70
2018-12-15T11:36:10.014Z,98718.91
2018-12-15T11:38:41.480Z,98717.30
2018-12-15T11:41:13.061Z,98715.66
2018-12-15T11:43:44.523Z,98708.62
2018-12-15T11:46:16.134Z,98709.61
2018-12-15T11:48:47.635Z,98702.86
2018-12-15T11:51:19.243Z,98705.16
2018-12-15T11:53:50.756Z,98703.41
2018-12-15T11:56:22.353Z,98699.05
2018-12-15T11:58:55.882Z,98701.22
2018-12-15T12:01:27.391Z,98696.16
2018-12-15T12:03:58.995Z,98696.94
2018-12-15T12:06:30.551Z,98688.84
2018-12-15T12:09:01.971Z,98683.47
2018-12-15T12:11:33.552Z,98683.58
2018-12-15T12:14:05.163Z,98685.91
2018-12-15T12:16:36.662Z,98685.91
2018-12-15T12:19:08.274Z,98684.88
2018-12-15T12:21:39.875Z,98682.13
2018-12-15T12:24:11.490Z,98690.31
2018-12-15T12:26:42.991Z,98685.55
2018-12-15T12:29:14.596Z,98685.23
2018-12-15T12:31:46.101Z,98678.74
2018-12-15T12:34:17.702Z,98675.17
2018-12-15T12:36:49.207Z,98677.72
2018-12-15T12:39:20.956Z,98680.09
2018-12-15T12:41:52.433Z,98678.64
2018-12-15T12:44:24.032Z,98672.55
2018-12-15T12:46:55.528Z,98670.91
2018-12-15T12:49:27.373Z,98667.91
2018-12-15T12:51:58.812Z,98666.30
2018-12-15T12:54:30.490Z,98672.66
2018-12-15T12:57:01.902Z,98670.73
2018-12-15T12:59:33.489Z,98666.15
2018-12-15T13:02:04.915Z,98664.63
2018-12-15T13:04:36.494Z,98664.47
2018-12-15T13:07:09.163Z,98665.41
2018-12-15T13:09:41.252Z,98666.62
2018-12-15T13:12:13.060Z,98664.03
2018-12-15T13:14:44.869Z,98665.64
2018-12-15T13:17:19.263Z,98667.91
2018-12-15T13:19:50.935Z,98662.59
2018-12-15T13:22:22.418Z,98661.33
2018-12-15T13:24:53.824Z,98660.62
2018-12-15T13:27:25.295Z,98661.78
2018-12-15T13:29:56.852Z,98662.53
2018-12-15T13:32:28.386Z,98667.60
2018-12-15T13:34:59.973Z,98667.37
2018-12-15T13:37:31.376Z,98671.44
2018-12-15T13:40:02.960Z,98672.97
2018-12-15T13:42:34.430Z,98672.48
2018-12-15T13:45:06.532Z,98672.41
2018-12-15T13:47:38.204Z,98673.48
2018-12-15T13:50:10.570Z,98667.89
2018-12-15T13:52:42.260Z,98663.89
2018-12-15T13:55:13.832Z,98672.34
2018-12-15T13:57:45.230Z,98670.34
2018-12-15T14:00:16.852Z,98676.42
2018-12-15T14:02:48.336Z,98668.47
2018-12-15T14:05:19.933Z,98678.03
2018-12-15T14:07:51.554Z,98676.26
2018-12-15T14:10:23.060Z,98672.13
2018-12-15T14:12:54.665Z,98673.20
2018-12-15T14:15:26.115Z,98673.98
2018-12-15T14:17:57.709Z,98675.64
2018-12-15T14:20:29.163Z,98675.14
2018-12-15T14:23:00.724Z,98678.24
2018-12-15T14:25:32.175Z,98673.84
2018-12-15T14:28:03.738Z,98673.38
2018-12-15T14:30:35.141Z,98669.08
2018-12-15T14:33:06.712Z,98666.70
2018-12-15T14:35:38.136Z,98662.56
2018-12-15T14:38:09.736Z,98661.39
2018-12-15T14:40:41.234Z,98663.86
2018-12-15T14:43:12.821Z,98663.62
2018-12-15T14:45:44.448Z,98662.13
2018-12-15T14:48:15.960Z,98661.27
2018-12-15T14:50:47.560Z,98661.05
2018-12-15T14:53:19.058Z,98659.63
2018-12-15T14:55:50.662Z,98658.45
2018-12-15T14:58:22.173Z,98658.47
2018-12-15T15:00:54.021Z,98660.86
2018-12-15T15:03:25.695Z,98656.14
2018-12-15T15:05:57.335Z,98653.54
2018-12-15T15:08:28.939Z,98650.30
2018-12-15T15:11:00.457Z,98647.83
2018-12-15T15:13:34.639Z,98650.34
2018-12-15T15:16:05.760Z,98649.75
2018-12-15T15:18:37.347Z,98656.18
2018-12-15T15:21:08.775Z,98656.05
2018-12-15T15:23:40.376Z,98648.61
2018-12-15T15:26:11.779Z,98652.80
2018-12-15T15:28:43.359Z,98654.66
2018-12-15T15:31:14.976Z,98649.42
2018-12-15T15:33:46.504Z,98648.98
2018-12-15T15:36:18.122Z,98644.57
2018-12-15T15:38:49.683Z,98639.55
2018-12-15T15:41:21.227Z,98641.12
2018-12-15T15:43:52.780Z,98638.66
2018-12-15T15:46:24.217Z,98633.93
2018-12-15T15:48:55.792Z,98636.49
2018-12-15T15:51:27.319Z,98637.14
2018-12-15T15:53:58.804Z,98641.03
2018-12-15T15:56:30.229Z,98632.48
2018-12-15T15:59:01.805Z,98632.20
2018-12-15T16:01:33.351Z,98636.47
2018-12-15T16:04:04.944Z,98633.30
2018-12-15T16:06:36.479Z,98628.84
2018-12-15T16:09:11.001Z,98623.19
2018-12-15T16:11:42.409Z,98624.86
2018-12-15T16:14:14.000Z,98618.95
2018-12-15T16:16:45.409Z,98621.20
2018-12-15T16:19:17.016Z,98617.62
2018-12-15T16:21:48.825Z,98607.30
2018-12-15T16:24:20.440Z,98616.04
2018-12-15T16:26:52.041Z,98613.66
2018-12-15T16:29:23.534Z,98612.89
2018-12-15T16:31:55.080Z,98610.89
2018-12-15T16:34:26.543Z,98614.83
2018-12-15T16:36:58.148Z,98616.50
2018-12-15T16:39:29.639Z,98621.63
2018-12-15T16:42:01.194Z,98619.23
2018-12-15T16:44:32.660Z,98617.43
2018-12-15T16:47:04.261Z,98608.67
2018-12-15T16:49:35.756Z,98607.09
2018-12-15T16:52:07.368Z,98597.66
2018-12-15T16:54:39.132Z,98596.52
2018-12-15T16:57:10.721Z,98595.47
2018-12-15T16:59:42.132Z,98602.03
2018-12-15T17:02:13.737Z,98596.03
2018-12-15T17:04:45.185Z,98594.44
2018-12-15T17:07:16.721Z,98590.73
2018-12-15T17:09:48.148Z,98598.42
2018-12-15T17:12:19.752Z,98591.42
2018-12-15T17:14:51.152Z,98584.66
2018-12-15T17:17:22.736Z,98582.91
2018-12-15T17:19:54.160Z,98585.30
2018-12-15T17:22:25.764Z,98584.98
2018-12-15T17:24:57.221Z,98582.61
2018-12-15T17:27:31.648Z,98575.19
2018-12-15T17:30:03.281Z,98578.16
2018-12-15T17:32:35.001Z,98570.44
2018-12-15T17:35:07.204Z,98567.16
2018-12-15T17:37:38.657Z,98570.98
2018-12-15T17:40:12.127Z,98563.59
2018-12-15T17:42:43.576Z,98564.88
2018-12-15T17:45:15.167Z,98565.63
2018-12-15T17:47:46.778Z,98558.19
2018-12-15T17:50:18.370Z,98553.56
2018-12-15T17:52:49.788Z,98554.08
2018-12-15T17:55:21.364Z,98552.34
2018-12-15T17:57:52.992Z,98554.86
2018-12-15T18:00:24.408Z,98551.53
2018-12-15T18:02:55.879Z,98548.04
2018-12-15T18:05:27.491Z,98551.02
2018-12-15T18:07:58.896Z,98541.30
2018-12-15T18:10:30.493Z,98531.60
2018-12-15T18:13:02.039Z,98532.55
2018-12-15T18:15:33.592Z,98532.28
2018-12-15T18:18:05.044Z,98526.78
2018-12-15T18:20:36.613Z,98520.40
2018-12-15T18:23:08.156Z,98518.41
2018-12-15T18:25:39.702Z,98519.75
2018-12-15T18:28:11.259Z,98513.91
2018-12-15T18:30:43.231Z,98514.70
2018-12-15T18:33:14.878Z,98517.21
2018-12-15T18:35:46.302Z,98517.83
2018-12-15T18:38:17.885Z,98513.63
2018-12-15T18:40:49.309Z,98512.54
2018-12-15T18:43:20.893Z,98510.92
2018-12-15T18:45:52.437Z,98510.00
2018-12-15T18:48:24.000Z,98502.48
2018-12-15T18:50:55.470Z,98502.13
2018-12-15T18:53:27.010Z,98499.98
2018-12-15T18:55:58.480Z,98501.05
2018-12-15T18:58:30.077Z,98491.37
2018-12-15T19:01:01.584Z,98490.34
2018-12-15T19:03:33.950Z,98482.34
2018-12-15T19:06:05.558Z,98478.25
2018-12-15T19:08:37.072Z,98476.37
2018-12-15T19:11:08.716Z,98464.58
2018-12-15T19:13:40.159Z,98453.97
2018-12-15T19:16:11.768Z,98456.27
2018-12-15T19:18:43.283Z,98443.11
2018-12-15T19:21:14.694Z,98450.30
2018-12-15T19:23:46.280Z,98454.63
2018-12-15T19:26:17.879Z,98457.38
2018-12-15T19:28:49.395Z,98455.36
2018-12-15T19:31:20.992Z,98454.59
2018-12-15T19:33:52.525Z,98454.94
2018-12-15T19:36:24.101Z,98451.77
2018-12-15T19:38:55.560Z,98449.56
2018-12-15T19:41:27.208Z,98442.88
2018-12-15T19:43:58.721Z,98445.53
2018-12-15T19:46:30.320Z,98434.92
2018-12-15T19:49:01.833Z,98433.59
2018-12-15T19:51:33.233Z,98419.92
2018-12-15T19:54:04.735Z,98420.19
2018-12-15T19:56:36.273Z,98417.08
2018-12-15T19:59:09.740Z,98412.94
2018-12-15T20:01:41.231Z,98412.77
2018-12-15T20:04:12.631Z,98410.97
2018-12-15T20:06:44.228Z,98402.21
2018-12-15T20:09:15.840Z,98395.62
2018-12-15T20:11:47.327Z,98390.31
2018-12-15T20:14:18.948Z,98392.45
2018-12-15T20:16:50.459Z,98389.53
2018-12-15T20:19:22.060Z,98383.84
2018-12-15T20:21:53.560Z,98379.66
2018-12-15T20:24:25.205Z,98373.53
2018-12-15T20:26:56.664Z,98372.75
2018-12-15T20:29:28.168Z,98377.08
2018-12-15T20:31:59.628Z,98373.57
2018-12-15T20:34:31.225Z,98372.08
2018-12-15T20:37:02.759Z,98370.11
2018-12-15T20:39:34.317Z,98378.11
2018-12-15T20:42:05.737Z,98377.06
2018-12-15T20:44:41.649Z,98372.47
2018-12-15T20:47:11.082Z,98372.55
2018-12-15T20:49:42.566Z,98360.70
2018-12-15T20:52:14.149Z,98364.47
2018-12-15T20:54:45.752Z,98360.34
2018-12-15T20:57:17.256Z,98358.69
2018-12-15T20:59:48.857Z,98353.88
2018-12-15T21:02:20.358Z,98352.07
2018-12-15T21:04:51.969Z,98347.47
2018-12-15T21:07:23.470Z,98354.62
2018-12-15T21:09:55.112Z,98345.22
2018-12-15T21:12:26.592Z,98342.20
2018-12-15T21:15:02.209Z,98332.36
2018-12-15T21:17:33.776Z,98325.53
2018-12-15T21:20:05.723Z,98321.78
2018-12-15T21:22:37.204Z,98322.06
2018-12-15T21:25:08.731Z,98319.05
2018-12-15T21:27:40.211Z,98308.71
2018-12-15T21:30:12.538Z,98304.07
2018-12-15T21:32:44.123Z,98306.00
2018-12-15T21:35:15.592Z,98294.19
2018-12-15T21:37:47.188Z,98290.95
2018-12-15T21:40:18.705Z,98286.06
2018-12-15T21:42:50.306Z,98284.09
2018-12-15T21:45:21.809Z,98272.77
2018-12-15T21:47:57.597Z,98272.58
2018-12-15T21:50:26.916Z,98271.34
2018-12-15T21:52:58.487Z,98264.30
2018-12-15T21:55:29.907Z,98259.48
2018-12-15T21:58:01.494Z,98253.78
2018-12-15T22:00:32.968Z,98249.46
2018-12-15T22:03:04.515Z,98250.88
2018-12-15T22:05:35.981Z,98242.22
2018-12-15T22:08:07.572Z,98241.41
2018-12-15T22:10:39.093Z,98231.76
2018-12-15T22:13:10.688Z,98232.85
2018-12-15T22:15:42.180Z,98235.02
2018-12-15T22:18:13.733Z,98234.83
2018-12-15T22:20:45.552Z,98228.14
2018-12-15T22:23:17.058Z,98227.02
2018-12-15T22:25:48.762Z,98229.96
2018-12-15T22:28:20.261Z,98224.27
2018-12-15T22:30:51.817Z,98216.30
2018-12-15T22:33:23.263Z,98215.56
2018-12-15T22:35:54.821Z,98218.08
2018-12-15T22:38:26.283Z,98218.83
2018-12-15T22:40:57.872Z,98213.56
2018-12-15T22:43:29.385Z,98205.48
2018-12-15T22:46:00.978Z,98203.27
2018-12-15T22:48:32.494Z,98197.50
2018-12-15T22:51:04.136Z,98198.05
2018-12-15T22:53:35.682Z,98195.67
2018-12-15T22:56:07.299Z,98201.55
2018-12-15T22:58:38.802Z,98196.95
2018-12-15T23:01:12.193Z,98188.76
2018-12-15T23:03:43.631Z,98188.16
2018-12-15T23:06:15.301Z,98186.75
2018-12-15T23:08:46.922Z,98177.15
2018-12-15T23:11:18.412Z,98176.44
2018-12-15T23:13:49.969Z,98175.62
2018-12-15T23:16:21.389Z,98169.52
2018-12-15T23:18:52.962Z,98168.46
2018-12-15T23:21:24.465Z,98168.41
2018-12-15T23:23:56.073Z,98165.98
2018-12-15T23:26:27.496Z,98167.73
2018-12-15T23:28:59.674Z,98165.25
2018-12-15T23:31:31.240Z,98156.75
2018-12-15T23:34:02.877Z,98149.45
2018-12-15T23:36:34.368Z,98142.50
2018-12-15T23:39:08.214Z,98134.39
2018-12-15T23:41:39.911Z,98128.75
2018-12-15T23:44:11.375Z,98125.86
2018-12-15T23:46:42.925Z,98122.18
2018-12-15T23:49:14.351Z,98125.33
2018-12-15T23:51:45.972Z,98125.77
2018-12-15T23:54:17.520Z,98122.44
2018-12-15T23:56:49.148Z,98118.94
2018-12-15T23:59:20.761Z,98117.05
